Norwich, CT

11:19 PM EDT on April 17, 2015 (GMT -0400)
Kimball Road | | Change Station
CLOSE
Current Station
Personal Weather Station
Location: Lisbon, CT
Elevation: 404 ft
Nearby Weather Stations
Active Advisory: Fire Weather Watch

Elev 404 ft 41.64 °N, 72.01 °W | Updated 16 minutes ago

Partly Cloudy
Partly Cloudy
52.5 °F
Feels Like 52.5 °F
N
0.0
Wind Variable Wind from West

Today
High -- | Low -- °F
--% Chance of Precip.
Yesterday
High -- | Low -- °F
Precip. -- in
6:05 AM 7:30 PM
Waning Crescent, 1% visible
Pressure 29.95 in
Visibility 7.0 miles
Clouds Clear
Dew Point 48 °F
Humidity 85%
Rainfall 0.16 in
Snow Depth Not available.
UV 0 out of 12
Pollen 8.00 out of 12
Air Quality Not available.
Flu Activity Widespread
METAR KIJD 180252Z AUTO 07003KT 7SM CLR 10/09 A2995 RMK AO2 SLP140 T01000089 51015

More Conditions Fewer Conditions

Pressure 29.95 in
Visibility 7.0 miles
Clouds Clear
Dew Point 48 °F
Humidity 85%
Rainfall 0.16 in
Snow Depth Not available.
UV 0 out of 12
Pollen 8.00 out of 12
Air Quality Not available.
Flu Activity Widespread
METAR KIJD 180252Z AUTO 07003KT 7SM CLR 10/09 A2995 RMK AO2 SLP140 T01000089 51015

More Conditions Fewer Conditions

10-Day Weather Forecast

Almanac

Astronomy

Apr. 17, 2015 Rise Set
Actual Time
Civil Twilight
Nautical Twilight
Astronomical Twilight
Moon
Length of Visible Light
Length of Day
Tomorrow will be .
, % of the Moon is Illuminated

Today's Extremes

State Highs State Lows

Community

WunderPhotos

Upload Photos

1,814,312 photos uploaded!

WunderBlogs® & News

Nearby

Air Quality

  Air Quality AQ Index Pollutant
Not available.

Snow Depth

Station Depth Elevation

Earthquake Activity

City Distance Mag. Time & Date
Minimum magnitude displayed is 2.5.

Coastal Water Temperatures

Place Temperature

Stations

Nearby Weather Stations

Station Location Temp. Windchill Dew Point Humidity Wind Precip. Elev Updated Type
                   
Fire Weather Watch
Statement as of 3:36 PM EDT on April 17, 2015

... Fire Weather Watch in effect from Saturday afternoon through
Saturday evening for the tri-state area...

The National Weather Service in Upton has issued a Fire Weather
Watch for the tri-state area... which is in effect from Saturday
afternoon through Saturday evening.

* Affected area... northeast NJ... NYC Metro... Long
Island... southern CT and lower Hudson Valley.

* Winds... sustained winds 15 to 20 mph with gusts 25 to 35 mph.

* Relative humidity... 20 to 30 percent.

* Timing... 12 PM to 8 PM Saturday.

* Impacts... rapid fire spread if ignition occurs. A wind shift is
expected Saturday evening that may create additional hazards for
any ongoing fires.

Precautionary/preparedness actions...

A Fire Weather Watch means that critical fire weather conditions
are forecast to occur. Listen for further updates regarding this
potential.